sensor_id;sensor_type;location;lat;lon;timestamp;temperature;humidity
2002;DHT22;1003;48.002;7.788;2022-11-20T00:01:30;6.50;99.90
2002;DHT22;1003;48.002;7.788;2022-11-20T00:03:58;6.50;99.90
2002;DHT22;1003;48.002;7.788;2022-11-20T00:06:26;6.50;99.90
2002;DHT22;1003;48.002;7.788;2022-11-20T00:08:55;6.40;99.90
2002;DHT22;1003;48.002;7.788;2022-11-20T00:11:26;6.50;99.90
2002;DHT22;1003;48.002;7.788;2022-11-20T00:13:56;6.40;99.90
2002;DHT22;1003;48.002;7.788;2022-11-20T00:16:26;6.40;99.90
2002;DHT22;1003;48.002;7.788;2022-11-20T00:18:55;6.40;99.90
2002;DHT22;1003;48.002;7.788;2022-11-20T00:21:23;6.40;99.90
2002;DHT22;1003;48.002;7.788;2022-11-20T00:23:53;6.40;99.90
2002;DHT22;1003;48.002;7.788;2022-11-20T00:26:25;6.40;99.90
2002;DHT22;1003;48.002;7.788;2022-11-20T00:28:54;6.40;99.90
2002;DHT22;1003;48.002;7.788;2022-11-20T00:31:23;6.40;99.90
2002;DHT22;1003;48.002;7.788;2022-11-20T00:33:50;6.40;99.90
2002;DHT22;1003;48.002;7.788;2022-11-20T00:36:20;6.40;99.90
2002;DHT22;1003;48.002;7.788;2022-11-20T00:38:51;6.40;99.90
2002;DHT22;1003;48.002;7.788;2022-11-20T00:41:19;6.50;99.90
2002;DHT22;1003;48.002;7.788;2022-11-20T00:43:47;6.60;99.90
2002;DHT22;1003;48.002;7.788;2022-11-20T00:46:16;6.60;99.90
2002;DHT22;1003;48.002;7.788;2022-11-20T00:48:44;6.50;99.90
2002;DHT22;1003;48.002;7.788;2022-11-20T00:51:13;6.50;99.90
2002;DHT22;1003;48.002;7.788;2022-11-20T00:53:42;6.50;99.90
2002;DHT22;1003;48.002;7.788;2022-11-20T00:56:11;6.50;99.90
2002;DHT22;1003;48.002;7.788;2022-11-20T00:58:40;6.50;99.90
2002;DHT22;1003;48.002;7.788;2022-11-20T01:01:12;6.50;99.90
2002;DHT22;1003;48.002;7.788;2022-11-20T01:03:42;6.50;99.90
2002;DHT22;1003;48.002;7.788;2022-11-20T01:06:12;6.50;99.90
2002;DHT22;1003;48.002;7.788;2022-11-20T01:08:41;6.50;99.90
2002;DHT22;1003;48.002;7.788;2022-11-20T01:11:11;6.40;99.90
2002;DHT22;1003;48.002;7.788;2022-11-20T01:13:40;6.50;99.90
2002;DHT22;1003;48.002;7.788;2022-11-20T01:16:11;6.50;99.90
2002;DHT22;1003;48.002;7.788;2022-11-20T01:18:41;6.50;99.90
2002;DHT22;1003;48.002;7.788;2022-11-20T01:21:10;6.50;99.90
2002;DHT22;1003;48.002;7.788;2022-11-20T01:23:40;6.60;99.90
2002;DHT22;1003;48.002;7.788;2022-11-20T01:26:11;6.50;99.90
2002;DHT22;1003;48.002;7.788;2022-11-20T01:28:40;6.40;99.90
2002;DHT22;1003;48.002;7.788;2022-11-20T01:31:13;6.50;99.90
2002;DHT22;1003;48.002;7.788;2022-11-20T01:33:42;6.50;99.90
2002;DHT22;1003;48.002;7.788;2022-11-20T01:36:12;6.50;99.90
2002;DHT22;1003;48.002;7.788;2022-11-20T01:38:40;6.50;99.90
2002;DHT22;1003;48.002;7.788;2022-11-20T01:41:09;6.50;99.90
2002;DHT22;1003;48.002;7.788;2022-11-20T01:43:57;6.50;99.90
2002;DHT22;1003;48.002;7.788;2022-11-20T01:46:27;6.50;99.90
2002;DHT22;1003;48.002;7.788;2022-11-20T01:48:57;6.50;99.90
2002;DHT22;1003;48.002;7.788;2022-11-20T01:51:31;6.50;99.90
2002;DHT22;1003;48.002;7.788;2022-11-20T01:54:05;6.50;99.90
2002;DHT22;1003;48.002;7.788;2022-11-20T01:56:38;6.50;99.90
2002;DHT22;1003;48.002;7.788;2022-11-20T01:59:08;6.50;99.90
2002;DHT22;1003;48.002;7.788;2022-11-20T02:01:41;6.50;99.90
2002;DHT22;1003;48.002;7.788;2022-11-20T02:04:09;6.50;99.90
2002;DHT22;1003;48.002;7.788;2022-11-20T02:06:40;6.50;99.90
2002;DHT22;1003;48.002;7.788;2022-11-20T02:09:11;6.50;99.90
2002;DHT22;1003;48.002;7.788;2022-11-20T02:11:38;6.50;99.90
2002;DHT22;1003;48.002;7.788;2022-11-20T02:14:05;6.50;99.90
2002;DHT22;1003;48.002;7.788;2022-11-20T02:16:34;6.50;99.90
2002;DHT22;1003;48.002;7.788;2022-11-20T02:19:09;6.50;99.90
2002;DHT22;1003;48.002;7.788;2022-11-20T02:21:49;6.50;99.90
2002;DHT22;1003;48.002;7.788;2022-11-20T02:24:24;6.50;99.90
2002;DHT22;1003;48.002;7.788;2022-11-20T02:26:53;6.50;99.90
2002;DHT22;1003;48.002;7.788;2022-11-20T02:29:26;6.50;99.90
2002;DHT22;1003;48.002;7.788;2022-11-20T02:31:58;6.60;99.90
2002;DHT22;1003;48.002;7.788;2022-11-20T02:34:27;6.60;99.90
2002;DHT22;1003;48.002;7.788;2022-11-20T02:36:55;6.60;99.90
2002;DHT22;1003;48.002;7.788;2022-11-20T02:39:27;6.60;99.90
2002;DHT22;1003;48.002;7.788;2022-11-20T02:41:55;6.60;99.90
2002;DHT22;1003;48.002;7.788;2022-11-20T02:44:23;6.60;99.90
2002;DHT22;1003;48.002;7.788;2022-11-20T02:46:50;6.50;99.90
2002;DHT22;1003;48.002;7.788;2022-11-20T02:49:17;6.50;99.90
2002;DHT22;1003;48.002;7.788;2022-11-20T02:51:44;6.50;99.90
2002;DHT22;1003;48.002;7.788;2022-11-20T02:54:11;6.50;99.90
2002;DHT22;1003;48.002;7.788;2022-11-20T02:56:40;6.50;99.90
2002;DHT22;1003;48.002;7.788;2022-11-20T02:59:07;6.40;99.90
2002;DHT22;1003;48.002;7.788;2022-11-20T03:01:35;6.40;99.90
2002;DHT22;1003;48.002;7.788;2022-11-20T03:04:02;6.30;99.90
2002;DHT22;1003;48.002;7.788;2022-11-20T03:06:29;6.30;99.90
2002;DHT22;1003;48.002;7.788;2022-11-20T03:08:56;6.20;99.90
2002;DHT22;1003;48.002;7.788;2022-11-20T03:11:23;6.20;99.90
2002;DHT22;1003;48.002;7.788;2022-11-20T03:13:52;6.30;99.90
2002;DHT22;1003;48.002;7.788;2022-11-20T03:16:20;6.30;99.90
2002;DHT22;1003;48.002;7.788;2022-11-20T03:18:51;6.30;99.90
2002;DHT22;1003;48.002;7.788;2022-11-20T03:21:18;6.30;99.90
2002;DHT22;1003;48.002;7.788;2022-11-20T03:23:45;6.40;99.90
2002;DHT22;1003;48.002;7.788;2022-11-20T03:26:15;6.40;99.90
2002;DHT22;1003;48.002;7.788;2022-11-20T03:28:47;6.40;99.90
2002;DHT22;1003;48.002;7.788;2022-11-20T03:31:19;6.40;99.90
2002;DHT22;1003;48.002;7.788;2022-11-20T03:33:47;6.50;99.90
2002;DHT22;1003;48.002;7.788;2022-11-20T03:36:15;6.50;99.90
2002;DHT22;1003;48.002;7.788;2022-11-20T03:38:44;6.50;99.90
2002;DHT22;1003;48.002;7.788;2022-11-20T03:41:14;6.50;99.90
2002;DHT22;1003;48.002;7.788;2022-11-20T03:43:47;6.50;99.90
2002;DHT22;1003;48.002;7.788;2022-11-20T03:46:17;6.60;99.90
2002;DHT22;1003;48.002;7.788;2022-11-20T03:48:44;6.60;99.90
2002;DHT22;1003;48.002;7.788;2022-11-20T03:51:14;6.70;99.90
2002;DHT22;1003;48.002;7.788;2022-11-20T03:53:44;6.60;99.90
2002;DHT22;1003;48.002;7.788;2022-11-20T03:56:14;6.60;99.90
2002;DHT22;1003;48.002;7.788;2022-11-20T03:58:43;6.60;99.90
2002;DHT22;1003;48.002;7.788;2022-11-20T04:01:13;6.60;99.90
2002;DHT22;1003;48.002;7.788;2022-11-20T04:03:44;6.60;99.90
2002;DHT22;1003;48.002;7.788;2022-11-20T04:06:14;6.50;99.90
2002;DHT22;1003;48.002;7.788;2022-11-20T04:08:44;6.60;99.90
2002;DHT22;1003;48.002;7.788;2022-11-20T04:11:12;6.60;99.90
2002;DHT22;1003;48.002;7.788;2022-11-20T04:13:41;6.60;99.90
2002;DHT22;1003;48.002;7.788;2022-11-20T04:16:09;6.60;99.90
2002;DHT22;1003;48.002;7.788;2022-11-20T04:18:36;6.70;99.90
2002;DHT22;1003;48.002;7.788;2022-11-20T04:21:05;6.70;99.90
2002;DHT22;1003;48.002;7.788;2022-11-20T04:23:33;6.60;99.90
2002;DHT22;1003;48.002;7.788;2022-11-20T04:26:01;6.70;99.90
2002;DHT22;1003;48.002;7.788;2022-11-20T04:28:29;6.70;99.90
2002;DHT22;1003;48.002;7.788;2022-11-20T04:31:02;6.70;99.90
2002;DHT22;1003;48.002;7.788;2022-11-20T04:33:30;6.70;99.90
2002;DHT22;1003;48.002;7.788;2022-11-20T04:36:01;6.80;99.90
2002;DHT22;1003;48.002;7.788;2022-11-20T04:38:31;6.80;99.90
2002;DHT22;1003;48.002;7.788;2022-11-20T04:40:58;6.70;99.90
2002;DHT22;1003;48.002;7.788;2022-11-20T04:43:26;6.70;99.90
2002;DHT22;1003;48.002;7.788;2022-11-20T04:45:53;6.60;99.90
2002;DHT22;1003;48.002;7.788;2022-11-20T04:48:21;6.70;99.90
2002;DHT22;1003;48.002;7.788;2022-11-20T04:50:49;6.60;99.90
2002;DHT22;1003;48.002;7.788;2022-11-20T04:53:16;6.60;99.90
2002;DHT22;1003;48.002;7.788;2022-11-20T04:55:45;6.60;99.90
2002;DHT22;1003;48.002;7.788;2022-11-20T04:58:13;6.60;99.90
2002;DHT22;1003;48.002;7.788;2022-11-20T05:00:41;6.60;99.90
2002;DHT22;1003;48.002;7.788;2022-11-20T05:03:08;6.60;99.90
2002;DHT22;1003;48.002;7.788;2022-11-20T05:05:35;6.60;99.90
2002;DHT22;1003;48.002;7.788;2022-11-20T05:08:02;6.60;99.90
2002;DHT22;1003;48.002;7.788;2022-11-20T05:10:30;6.60;99.90
2002;DHT22;1003;48.002;7.788;2022-11-20T05:12:58;6.60;99.90
2002;DHT22;1003;48.002;7.788;2022-11-20T05:15:25;6.60;99.90
2002;DHT22;1003;48.002;7.788;2022-11-20T05:17:53;6.60;99.90
2002;DHT22;1003;48.002;7.788;2022-11-20T05:20:20;6.60;99.90
2002;DHT22;1003;48.002;7.788;2022-11-20T05:22:47;6.60;99.90
2002;DHT22;1003;48.002;7.788;2022-11-20T05:25:14;6.60;99.90
2002;DHT22;1003;48.002;7.788;2022-11-20T05:27:41;6.70;99.90
2002;DHT22;1003;48.002;7.788;2022-11-20T05:30:11;6.80;99.90
2002;DHT22;1003;48.002;7.788;2022-11-20T05:32:39;6.70;99.90
2002;DHT22;1003;48.002;7.788;2022-11-20T05:35:07;6.70;99.90
2002;DHT22;1003;48.002;7.788;2022-11-20T05:37:34;6.70;99.90
2002;DHT22;1003;48.002;7.788;2022-11-20T05:40:01;6.80;99.90
2002;DHT22;1003;48.002;7.788;2022-11-20T05:42:30;6.80;99.90
2002;DHT22;1003;48.002;7.788;2022-11-20T05:44:57;6.80;99.90
2002;DHT22;1003;48.002;7.788;2022-11-20T05:47:26;6.70;99.90
2002;DHT22;1003;48.002;7.788;2022-11-20T05:49:54;6.70;99.90
2002;DHT22;1003;48.002;7.788;2022-11-20T05:52:21;6.80;99.90
2002;DHT22;1003;48.002;7.788;2022-11-20T05:54:48;6.70;99.90
2002;DHT22;1003;48.002;7.788;2022-11-20T05:57:16;6.80;99.90
2002;DHT22;1003;48.002;7.788;2022-11-20T05:59:43;6.80;99.90
2002;DHT22;1003;48.002;7.788;2022-11-20T06:02:10;6.80;99.90
2002;DHT22;1003;48.002;7.788;2022-11-20T06:04:38;6.80;99.90
2002;DHT22;1003;48.002;7.788;2022-11-20T06:07:06;6.90;99.90
2002;DHT22;1003;48.002;7.788;2022-11-20T06:09:33;6.90;99.90
2002;DHT22;1003;48.002;7.788;2022-11-20T06:12:00;6.80;99.90
2002;DHT22;1003;48.002;7.788;2022-11-20T06:14:27;6.80;99.90
2002;DHT22;1003;48.002;7.788;2022-11-20T06:16:54;6.80;99.90
2002;DHT22;1003;48.002;7.788;2022-11-20T06:19:21;6.80;99.90
2002;DHT22;1003;48.002;7.788;2022-11-20T06:21:50;6.80;99.90
2002;DHT22;1003;48.002;7.788;2022-11-20T06:24:17;6.80;99.90
2002;DHT22;1003;48.002;7.788;2022-11-20T06:26:44;6.70;99.90
2002;DHT22;1003;48.002;7.788;2022-11-20T06:29:11;6.70;99.90
2002;DHT22;1003;48.002;7.788;2022-11-20T06:31:38;6.80;99.90
2002;DHT22;1003;48.002;7.788;2022-11-20T06:34:08;6.80;99.90
2002;DHT22;1003;48.002;7.788;2022-11-20T06:36:35;6.70;99.90
2002;DHT22;1003;48.002;7.788;2022-11-20T06:39:04;6.80;99.90
2002;DHT22;1003;48.002;7.788;2022-11-20T06:41:31;6.70;99.90
2002;DHT22;1003;48.002;7.788;2022-11-20T06:43:58;6.80;99.90
2002;DHT22;1003;48.002;7.788;2022-11-20T06:46:25;6.70;99.90
2002;DHT22;1003;48.002;7.788;2022-11-20T06:48:52;6.70;99.90
2002;DHT22;1003;48.002;7.788;2022-11-20T06:51:20;6.70;99.90
2002;DHT22;1003;48.002;7.788;2022-11-20T06:53:48;6.80;99.90
2002;DHT22;1003;48.002;7.788;2022-11-20T06:56:16;6.80;99.90
2002;DHT22;1003;48.002;7.788;2022-11-20T06:58:43;6.80;99.90
2002;DHT22;1003;48.002;7.788;2022-11-20T07:01:12;6.80;99.90
2002;DHT22;1003;48.002;7.788;2022-11-20T07:03:41;6.80;99.90
2002;DHT22;1003;48.002;7.788;2022-11-20T07:06:09;6.90;99.90
2002;DHT22;1003;48.002;7.788;2022-11-20T07:08:36;6.90;99.90
2002;DHT22;1003;48.002;7.788;2022-11-20T07:11:06;6.90;99.90
2002;DHT22;1003;48.002;7.788;2022-11-20T07:13:35;6.80;99.90
2002;DHT22;1003;48.002;7.788;2022-11-20T07:16:03;6.80;99.90
2002;DHT22;1003;48.002;7.788;2022-11-20T07:18:32;6.90;99.90
2002;DHT22;1003;48.002;7.788;2022-11-20T07:21:00;6.80;99.90
2002;DHT22;1003;48.002;7.788;2022-11-20T07:23:29;6.90;99.90
2002;DHT22;1003;48.002;7.788;2022-11-20T07:25:56;6.90;99.90
2002;DHT22;1003;48.002;7.788;2022-11-20T07:28:23;7.00;99.90
2002;DHT22;1003;48.002;7.788;2022-11-20T07:30:52;7.00;99.90
2002;DHT22;1003;48.002;7.788;2022-11-20T07:33:20;7.00;99.90
2002;DHT22;1003;48.002;7.788;2022-11-20T07:35:47;6.90;99.90
2002;DHT22;1003;48.002;7.788;2022-11-20T07:38:14;7.00;99.90
2002;DHT22;1003;48.002;7.788;2022-11-20T07:40:41;6.90;99.90
2002;DHT22;1003;48.002;7.788;2022-11-20T07:43:09;7.00;99.90
2002;DHT22;1003;48.002;7.788;2022-11-20T07:45:36;7.00;99.90
2002;DHT22;1003;48.002;7.788;2022-11-20T07:48:05;7.00;99.90
2002;DHT22;1003;48.002;7.788;2022-11-20T07:50:32;7.10;99.90
2002;DHT22;1003;48.002;7.788;2022-11-20T07:53:02;7.10;99.90
2002;DHT22;1003;48.002;7.788;2022-11-20T07:55:31;7.10;99.90
2002;DHT22;1003;48.002;7.788;2022-11-20T07:57:58;7.10;99.90
2002;DHT22;1003;48.002;7.788;2022-11-20T08:00:26;7.00;99.90
2002;DHT22;1003;48.002;7.788;2022-11-20T08:02:53;7.00;99.90
2002;DHT22;1003;48.002;7.788;2022-11-20T08:05:22;7.00;99.90
2002;DHT22;1003;48.002;7.788;2022-11-20T08:07:49;6.90;99.90
2002;DHT22;1003;48.002;7.788;2022-11-20T08:10:17;7.00;99.90
2002;DHT22;1003;48.002;7.788;2022-11-20T08:12:44;7.00;99.90
2002;DHT22;1003;48.002;7.788;2022-11-20T08:15:26;7.00;99.90
2002;DHT22;1003;48.002;7.788;2022-11-20T08:17:59;7.00;99.90
2002;DHT22;1003;48.002;7.788;2022-11-20T08:20:28;7.00;99.90
2002;DHT22;1003;48.002;7.788;2022-11-20T08:22:59;7.10;99.90
2002;DHT22;1003;48.002;7.788;2022-11-20T08:25:27;7.10;99.90
2002;DHT22;1003;48.002;7.788;2022-11-20T08:27:57;7.10;99.90
2002;DHT22;1003;48.002;7.788;2022-11-20T08:30:25;7.10;99.90
2002;DHT22;1003;48.002;7.788;2022-11-20T08:32:53;7.20;99.90
2002;DHT22;1003;48.002;7.788;2022-11-20T08:35:21;7.20;99.90
2002;DHT22;1003;48.002;7.788;2022-11-20T08:37:49;7.30;99.90
2002;DHT22;1003;48.002;7.788;2022-11-20T08:40:17;7.40;99.90
2002;DHT22;1003;48.002;7.788;2022-11-20T08:42:47;7.50;99.90
2002;DHT22;1003;48.002;7.788;2022-11-20T08:45:15;7.50;99.90
2002;DHT22;1003;48.002;7.788;2022-11-20T08:47:43;7.60;99.90
2002;DHT22;1003;48.002;7.788;2022-11-20T08:50:13;7.60;99.90
2002;DHT22;1003;48.002;7.788;2022-11-20T08:52:42;7.70;99.90
2002;DHT22;1003;48.002;7.788;2022-11-20T08:55:11;7.80;99.90
2002;DHT22;1003;48.002;7.788;2022-11-20T08:57:38;7.80;99.90
2002;DHT22;1003;48.002;7.788;2022-11-20T09:00:07;7.80;99.90
2002;DHT22;1003;48.002;7.788;2022-11-20T09:02:34;7.80;99.90
2002;DHT22;1003;48.002;7.788;2022-11-20T09:05:02;7.70;99.90
2002;DHT22;1003;48.002;7.788;2022-11-20T09:07:29;7.70;99.90
2002;DHT22;1003;48.002;7.788;2022-11-20T09:09:56;7.70;99.90
2002;DHT22;1003;48.002;7.788;2022-11-20T09:12:25;7.70;99.90
2002;DHT22;1003;48.002;7.788;2022-11-20T09:14:52;7.60;99.90
2002;DHT22;1003;48.002;7.788;2022-11-20T09:17:19;7.60;99.90
2002;DHT22;1003;48.002;7.788;2022-11-20T09:19:46;7.60;99.90
2002;DHT22;1003;48.002;7.788;2022-11-20T09:22:14;7.60;99.90
2002;DHT22;1003;48.002;7.788;2022-11-20T09:24:41;7.70;99.90
2002;DHT22;1003;48.002;7.788;2022-11-20T09:27:08;7.70;99.90
2002;DHT22;1003;48.002;7.788;2022-11-20T09:29:36;7.70;99.90
2002;DHT22;1003;48.002;7.788;2022-11-20T09:32:04;7.70;99.90
2002;DHT22;1003;48.002;7.788;2022-11-20T09:34:31;7.70;99.90
2002;DHT22;1003;48.002;7.788;2022-11-20T09:36:58;7.80;99.90
2002;DHT22;1003;48.002;7.788;2022-11-20T09:39:25;7.90;99.90
2002;DHT22;1003;48.002;7.788;2022-11-20T09:42:18;8.10;99.90
2002;DHT22;1003;48.002;7.788;2022-11-20T09:45:16;8.10;99.90
2002;DHT22;1003;48.002;7.788;2022-11-20T09:48:02;8.30;99.90
2002;DHT22;1003;48.002;7.788;2022-11-20T09:50:43;8.40;99.90
2002;DHT22;1003;48.002;7.788;2022-11-20T09:53:22;8.50;99.90
2002;DHT22;1003;48.002;7.788;2022-11-20T09:55:56;8.60;99.90
2002;DHT22;1003;48.002;7.788;2022-11-20T09:58:28;8.80;99.90
2002;DHT22;1003;48.002;7.788;2022-11-20T10:01:08;8.80;99.90
2002;DHT22;1003;48.002;7.788;2022-11-20T10:03:48;8.90;99.90
2002;DHT22;1003;48.002;7.788;2022-11-20T10:06:24;8.90;99.90
2002;DHT22;1003;48.002;7.788;2022-11-20T10:09:02;8.80;99.90
2002;DHT22;1003;48.002;7.788;2022-11-20T10:11:48;8.80;99.90
2002;DHT22;1003;48.002;7.788;2022-11-20T10:14:28;8.90;99.90
2002;DHT22;1003;48.002;7.788;2022-11-20T10:17:15;8.90;99.90
2002;DHT22;1003;48.002;7.788;2022-11-20T10:20:01;8.90;99.90
2002;DHT22;1003;48.002;7.788;2022-11-20T10:22:51;8.90;99.90
2002;DHT22;1003;48.002;7.788;2022-11-20T10:25:37;8.90;99.90
2002;DHT22;1003;48.002;7.788;2022-11-20T10:28:24;8.90;99.90
2002;DHT22;1003;48.002;7.788;2022-11-20T10:31:04;8.80;99.90
2002;DHT22;1003;48.002;7.788;2022-11-20T10:33:42;8.80;99.90
2002;DHT22;1003;48.002;7.788;2022-11-20T10:36:16;8.80;99.90
2002;DHT22;1003;48.002;7.788;2022-11-20T10:38:52;8.90;99.90
2002;DHT22;1003;48.002;7.788;2022-11-20T10:41:27;9.00;99.90
2002;DHT22;1003;48.002;7.788;2022-11-20T10:44:03;9.10;99.90
2002;DHT22;1003;48.002;7.788;2022-11-20T10:46:37;9.20;99.90
2002;DHT22;1003;48.002;7.788;2022-11-20T10:49:13;9.40;99.90
2002;DHT22;1003;48.002;7.788;2022-11-20T10:51:52;9.60;99.90
2002;DHT22;1003;48.002;7.788;2022-11-20T10:54:34;9.50;99.90
2002;DHT22;1003;48.002;7.788;2022-11-20T10:57:13;9.60;99.90
2002;DHT22;1003;48.002;7.788;2022-11-20T11:00:05;9.70;99.90
2002;DHT22;1003;48.002;7.788;2022-11-20T11:02:40;9.80;99.90
2002;DHT22;1003;48.002;7.788;2022-11-20T11:05:22;9.70;99.90
2002;DHT22;1003;48.002;7.788;2022-11-20T11:07:59;9.70;99.90
2002;DHT22;1003;48.002;7.788;2022-11-20T11:10:36;9.80;99.90
2002;DHT22;1003;48.002;7.788;2022-11-20T11:13:19;9.80;99.90
2002;DHT22;1003;48.002;7.788;2022-11-20T11:15:47;9.70;99.90
2002;DHT22;1003;48.002;7.788;2022-11-20T11:18:24;9.70;99.90
2002;DHT22;1003;48.002;7.788;2022-11-20T11:20:54;9.60;99.90
2002;DHT22;1003;48.002;7.788;2022-11-20T11:23:31;9.60;99.90
2002;DHT22;1003;48.002;7.788;2022-11-20T11:26:02;9.70;99.90
2002;DHT22;1003;48.002;7.788;2022-11-20T11:28:31;9.70;99.90
2002;DHT22;1003;48.002;7.788;2022-11-20T11:30:59;9.70;99.90
2002;DHT22;1003;48.002;7.788;2022-11-20T11:33:28;9.80;99.90
2002;DHT22;1003;48.002;7.788;2022-11-20T11:35:59;9.90;99.90
2002;DHT22;1003;48.002;7.788;2022-11-20T11:38:32;9.80;99.90
2002;DHT22;1003;48.002;7.788;2022-11-20T11:41:04;9.70;99.90
2002;DHT22;1003;48.002;7.788;2022-11-20T11:43:34;9.70;99.90
2002;DHT22;1003;48.002;7.788;2022-11-20T11:46:30;9.70;99.90
2002;DHT22;1003;48.002;7.788;2022-11-20T11:49:00;9.60;99.90
2002;DHT22;1003;48.002;7.788;2022-11-20T11:51:41;9.50;99.90
2002;DHT22;1003;48.002;7.788;2022-11-20T11:54:24;9.40;99.90
2002;DHT22;1003;48.002;7.788;2022-11-20T11:57:00;9.30;99.90
2002;DHT22;1003;48.002;7.788;2022-11-20T11:59:41;9.30;99.90
2002;DHT22;1003;48.002;7.788;2022-11-20T12:02:29;9.10;99.90
2002;DHT22;1003;48.002;7.788;2022-11-20T12:05:09;9.20;99.90
2002;DHT22;1003;48.002;7.788;2022-11-20T12:07:47;9.20;99.90
2002;DHT22;1003;48.002;7.788;2022-11-20T12:10:21;9.30;99.90
2002;DHT22;1003;48.002;7.788;2022-11-20T12:12:55;9.30;99.90
2002;DHT22;1003;48.002;7.788;2022-11-20T12:15:30;9.50;99.90
2002;DHT22;1003;48.002;7.788;2022-11-20T12:18:00;9.50;99.90
2002;DHT22;1003;48.002;7.788;2022-11-20T12:20:33;9.40;99.90
2002;DHT22;1003;48.002;7.788;2022-11-20T12:23:14;9.40;99.90
2002;DHT22;1003;48.002;7.788;2022-11-20T12:25:53;9.30;99.90
2002;DHT22;1003;48.002;7.788;2022-11-20T12:28:41;9.20;99.90
2002;DHT22;1003;48.002;7.788;2022-11-20T12:31:26;9.20;99.90
2002;DHT22;1003;48.002;7.788;2022-11-20T12:34:17;9.50;99.90
2002;DHT22;1003;48.002;7.788;2022-11-20T12:36:59;9.70;99.90
2002;DHT22;1003;48.002;7.788;2022-11-20T12:39:36;9.90;99.90
2002;DHT22;1003;48.002;7.788;2022-11-20T12:42:34;10.10;99.90
2002;DHT22;1003;48.002;7.788;2022-11-20T12:45:49;10.30;99.90
2002;DHT22;1003;48.002;7.788;2022-11-20T12:48:38;10.30;99.90
2002;DHT22;1003;48.002;7.788;2022-11-20T12:51:29;10.30;99.90
2002;DHT22;1003;48.002;7.788;2022-11-20T12:57:26;9.90;99.90
2002;DHT22;1003;48.002;7.788;2022-11-20T13:00:09;9.70;99.90
2002;DHT22;1003;48.002;7.788;2022-11-20T13:05:59;9.30;99.90
2002;DHT22;1003;48.002;7.788;2022-11-20T13:08:34;9.30;99.90
2002;DHT22;1003;48.002;7.788;2022-11-20T13:11:09;9.40;99.90
2002;DHT22;1003;48.002;7.788;2022-11-20T13:14:03;9.50;99.90
2002;DHT22;1003;48.002;7.788;2022-11-20T13:16:44;9.60;99.90
2002;DHT22;1003;48.002;7.788;2022-11-20T13:19:16;9.70;99.90
2002;DHT22;1003;48.002;7.788;2022-11-20T13:21:46;9.50;99.90
2002;DHT22;1003;48.002;7.788;2022-11-20T13:24:24;9.40;99.90
2002;DHT22;1003;48.002;7.788;2022-11-20T13:27:21;9.30;99.90
2002;DHT22;1003;48.002;7.788;2022-11-20T13:30:12;9.40;99.90
2002;DHT22;1003;48.002;7.788;2022-11-20T13:32:53;9.50;99.90
2002;DHT22;1003;48.002;7.788;2022-11-20T13:35:28;9.60;99.90
2002;DHT22;1003;48.002;7.788;2022-11-20T13:38:02;9.70;99.90
2002;DHT22;1003;48.002;7.788;2022-11-20T13:40:32;9.60;99.90
2002;DHT22;1003;48.002;7.788;2022-11-20T13:43:21;9.70;99.90
2002;DHT22;1003;48.002;7.788;2022-11-20T13:45:59;9.80;99.90
2002;DHT22;1003;48.002;7.788;2022-11-20T13:48:30;9.90;99.90
2002;DHT22;1003;48.002;7.788;2022-11-20T13:51:23;10.00;99.90
2002;DHT22;1003;48.002;7.788;2022-11-20T13:54:19;10.10;99.90
2002;DHT22;1003;48.002;7.788;2022-11-20T13:57:05;10.20;99.90
2002;DHT22;1003;48.002;7.788;2022-11-20T14:00:16;10.30;99.90
2002;DHT22;1003;48.002;7.788;2022-11-20T14:02:52;10.20;99.90
2002;DHT22;1003;48.002;7.788;2022-11-20T14:05:37;10.10;99.90
2002;DHT22;1003;48.002;7.788;2022-11-20T14:08:14;9.90;99.90
2002;DHT22;1003;48.002;7.788;2022-11-20T14:10:47;9.70;99.90
2002;DHT22;1003;48.002;7.788;2022-11-20T14:13:18;9.60;99.90
2002;DHT22;1003;48.002;7.788;2022-11-20T14:15:56;9.50;99.90
2002;DHT22;1003;48.002;7.788;2022-11-20T14:18:26;9.50;99.90
2002;DHT22;1003;48.002;7.788;2022-11-20T14:20:53;9.30;99.90
2002;DHT22;1003;48.002;7.788;2022-11-20T14:23:26;9.40;99.90
2002;DHT22;1003;48.002;7.788;2022-11-20T14:25:54;9.40;99.90
2002;DHT22;1003;48.002;7.788;2022-11-20T14:28:25;9.30;99.90
2002;DHT22;1003;48.002;7.788;2022-11-20T14:30:56;9.20;99.90
2002;DHT22;1003;48.002;7.788;2022-11-20T14:33:25;9.20;99.90
2002;DHT22;1003;48.002;7.788;2022-11-20T14:35:55;9.10;99.90
2002;DHT22;1003;48.002;7.788;2022-11-20T14:38:26;9.10;99.90
2002;DHT22;1003;48.002;7.788;2022-11-20T14:41:05;9.10;99.90
2002;DHT22;1003;48.002;7.788;2022-11-20T14:43:33;9.00;99.90
2002;DHT22;1003;48.002;7.788;2022-11-20T14:46:05;9.00;99.90
2002;DHT22;1003;48.002;7.788;2022-11-20T14:48:38;8.90;99.90
2002;DHT22;1003;48.002;7.788;2022-11-20T14:51:09;8.80;99.90
2002;DHT22;1003;48.002;7.788;2022-11-20T14:53:37;8.70;99.90
2002;DHT22;1003;48.002;7.788;2022-11-20T14:56:04;8.70;99.90
2002;DHT22;1003;48.002;7.788;2022-11-20T14:58:33;8.60;99.90
2002;DHT22;1003;48.002;7.788;2022-11-20T15:01:04;8.60;99.90
2002;DHT22;1003;48.002;7.788;2022-11-20T15:03:33;8.60;99.90
2002;DHT22;1003;48.002;7.788;2022-11-20T15:06:02;8.50;99.90
2002;DHT22;1003;48.002;7.788;2022-11-20T15:08:30;8.40;99.90
2002;DHT22;1003;48.002;7.788;2022-11-20T15:10:57;8.30;99.90
2002;DHT22;1003;48.002;7.788;2022-11-20T15:13:29;8.40;99.90
2002;DHT22;1003;48.002;7.788;2022-11-20T15:15:59;8.30;99.90
2002;DHT22;1003;48.002;7.788;2022-11-20T15:18:32;8.20;99.90
2002;DHT22;1003;48.002;7.788;2022-11-20T15:21:10;8.20;99.90
2002;DHT22;1003;48.002;7.788;2022-11-20T15:23:38;8.20;99.90
2002;DHT22;1003;48.002;7.788;2022-11-20T15:26:05;8.10;99.90
2002;DHT22;1003;48.002;7.788;2022-11-20T15:28:34;8.10;99.90
2002;DHT22;1003;48.002;7.788;2022-11-20T15:31:06;8.00;99.90
2002;DHT22;1003;48.002;7.788;2022-11-20T15:33:33;8.00;99.90
2002;DHT22;1003;48.002;7.788;2022-11-20T15:36:01;8.00;99.90
2002;DHT22;1003;48.002;7.788;2022-11-20T15:38:28;8.00;99.90
2002;DHT22;1003;48.002;7.788;2022-11-20T15:40:55;8.00;99.90
2002;DHT22;1003;48.002;7.788;2022-11-20T15:43:23;7.90;99.90
2002;DHT22;1003;48.002;7.788;2022-11-20T15:45:53;7.80;99.90
2002;DHT22;1003;48.002;7.788;2022-11-20T15:48:26;7.70;99.90
2002;DHT22;1003;48.002;7.788;2022-11-20T15:51:02;7.60;99.90
2002;DHT22;1003;48.002;7.788;2022-11-20T15:53:32;7.60;99.90
2002;DHT22;1003;48.002;7.788;2022-11-20T15:55:59;7.60;99.90
2002;DHT22;1003;48.002;7.788;2022-11-20T15:58:26;7.60;99.90
2002;DHT22;1003;48.002;7.788;2022-11-20T16:00:54;7.60;99.90
2002;DHT22;1003;48.002;7.788;2022-11-20T16:03:21;7.60;99.90
2002;DHT22;1003;48.002;7.788;2022-11-20T16:05:50;7.60;99.90
2002;DHT22;1003;48.002;7.788;2022-11-20T16:08:17;7.70;99.90
2002;DHT22;1003;48.002;7.788;2022-11-20T16:10:44;7.60;99.90
2002;DHT22;1003;48.002;7.788;2022-11-20T16:13:16;7.60;99.90
2002;DHT22;1003;48.002;7.788;2022-11-20T16:16:03;7.50;99.90
2002;DHT22;1003;48.002;7.788;2022-11-20T16:18:34;7.50;99.90
2002;DHT22;1003;48.002;7.788;2022-11-20T16:21:03;7.50;99.90
2002;DHT22;1003;48.002;7.788;2022-11-20T16:23:31;7.60;99.90
2002;DHT22;1003;48.002;7.788;2022-11-20T16:25:58;7.60;99.90
2002;DHT22;1003;48.002;7.788;2022-11-20T16:28:25;7.60;99.90
2002;DHT22;1003;48.002;7.788;2022-11-20T16:30:52;7.60;99.90
2002;DHT22;1003;48.002;7.788;2022-11-20T16:33:19;7.60;99.90
2002;DHT22;1003;48.002;7.788;2022-11-20T16:35:46;7.70;99.90
2002;DHT22;1003;48.002;7.788;2022-11-20T16:38:15;7.60;99.90
2002;DHT22;1003;48.002;7.788;2022-11-20T16:40:42;7.60;99.90
2002;DHT22;1003;48.002;7.788;2022-11-20T16:43:10;7.60;99.90
2002;DHT22;1003;48.002;7.788;2022-11-20T16:45:41;7.60;99.90
2002;DHT22;1003;48.002;7.788;2022-11-20T16:48:13;7.60;99.90
2002;DHT22;1003;48.002;7.788;2022-11-20T16:50:45;7.60;99.90
2002;DHT22;1003;48.002;7.788;2022-11-20T16:53:16;7.60;99.90